createdAt,value
2017-12-25T00:00:41.856Z,101448
2017-12-25T00:03:10.705Z,101357
2017-12-25T00:05:39.039Z,101447
2017-12-25T00:08:12.828Z,101447
2017-12-25T00:10:40.975Z,101445
2017-12-25T00:13:09.224Z,101452
2017-12-25T00:15:37.336Z,101443
2017-12-25T00:18:05.515Z,101446
2017-12-25T00:20:33.896Z,101446
2017-12-25T00:23:02.068Z,101449
2017-12-25T00:25:30.947Z,101434
2017-12-25T00:28:00.143Z,101460
2017-12-25T00:30:28.296Z,101439
2017-12-25T00:32:56.424Z,101439
2017-12-25T00:35:25.264Z,101429
2017-12-25T00:37:53.385Z,101427
2017-12-25T00:40:21.590Z,101421
2017-12-25T00:42:49.727Z,101424
2017-12-25T00:45:17.925Z,101419
2017-12-25T00:47:46.035Z,101426
2017-12-25T00:50:14.267Z,101430
2017-12-25T00:52:42.492Z,101420
2017-12-25T00:55:10.595Z,101429
2017-12-25T00:57:38.715Z,101418
2017-12-25T01:00:07.796Z,101423
2017-12-25T01:02:36.951Z,101413
2017-12-25T01:05:05.133Z,101410
2017-12-25T01:07:33.463Z,101425
2017-12-25T01:10:01.599Z,101408
2017-12-25T01:12:29.786Z,101410
2017-12-25T01:14:57.936Z,101411
2017-12-25T01:17:27.815Z,101412
2017-12-25T01:19:56.056Z,101409
2017-12-25T01:22:24.182Z,101405
2017-12-25T01:24:52.289Z,101399
2017-12-25T01:27:21.224Z,101403
2017-12-25T01:29:51.416Z,101407
2017-12-25T01:32:19.594Z,101398
2017-12-25T01:34:47.663Z,101404
2017-12-25T01:37:15.767Z,101403
2017-12-25T01:39:45.975Z,101408
2017-12-25T01:42:14.124Z,101406
2017-12-25T01:44:42.264Z,101404
2017-12-25T01:47:10.438Z,101399
2017-12-25T01:49:39.068Z,101403
2017-12-25T01:52:08.974Z,101398
2017-12-25T01:54:38.970Z,101406
2017-12-25T01:57:17.585Z,101393
2017-12-25T02:02:52.664Z,101396
2017-12-25T02:08:33.952Z,101386
2017-12-25T02:11:02.810Z,101381
2017-12-25T02:13:30.972Z,101377
2017-12-25T02:15:59.213Z,101385
2017-12-25T02:18:27.415Z,101376
2017-12-25T02:20:55.671Z,101373
2017-12-25T02:23:23.978Z,101369
2017-12-25T02:25:52.216Z,101364
2017-12-25T02:28:20.372Z,101369
2017-12-25T02:30:48.604Z,101373
2017-12-25T02:33:17.411Z,101357
2017-12-25T02:35:50.761Z,101356
2017-12-25T02:38:22.547Z,101349
2017-12-25T02:41:01.195Z,101352
2017-12-25T02:43:30.129Z,101347
2017-12-25T02:45:58.420Z,101352
2017-12-25T02:48:28.601Z,101358
2017-12-25T02:50:57.712Z,101345
2017-12-25T02:53:27.042Z,101344
2017-12-25T02:55:55.274Z,101339
2017-12-25T02:58:23.559Z,101348
2017-12-25T03:00:51.687Z,101341
2017-12-25T03:03:23.626Z,101340
2017-12-25T03:05:51.759Z,101345
2017-12-25T03:08:19.864Z,101338
2017-12-25T03:10:48.319Z,101340
2017-12-25T03:13:16.444Z,101343
2017-12-25T03:15:44.939Z,101333
2017-12-25T03:18:13.035Z,101334
2017-12-25T03:20:41.230Z,101327
2017-12-25T03:23:09.542Z,101324
2017-12-25T03:25:38.735Z,101317
2017-12-25T03:28:06.823Z,101314
2017-12-25T03:30:35.056Z,101314
2017-12-25T03:33:03.200Z,101318
2017-12-25T03:35:32.147Z,101306
2017-12-25T03:38:00.246Z,101310
2017-12-25T03:40:29.396Z,101305
2017-12-25T03:42:57.519Z,101298
2017-12-25T03:45:25.726Z,101298
2017-12-25T03:47:53.866Z,101300
2017-12-25T03:50:23.043Z,101294
2017-12-25T03:52:53.451Z,101283
2017-12-25T03:55:21.599Z,101292
2017-12-25T03:57:49.726Z,101292
2017-12-25T04:00:17.938Z,101282
2017-12-25T04:02:47.147Z,101285
2017-12-25T04:05:16.384Z,101281
2017-12-25T04:07:44.640Z,101274
2017-12-25T04:10:12.879Z,101286
2017-12-25T04:12:42.287Z,101260
2017-12-25T04:15:12.280Z,101270
2017-12-25T04:17:40.519Z,101272
2017-12-25T04:20:08.606Z,101265
2017-12-25T04:22:36.825Z,101254
2017-12-25T04:25:04.972Z,101250
2017-12-25T04:27:33.083Z,101257
2017-12-25T04:30:04.673Z,101248
2017-12-25T04:32:32.850Z,101241
2017-12-25T04:35:01.091Z,101236
2017-12-25T04:37:29.282Z,101237
2017-12-25T04:39:58.355Z,101238
2017-12-25T04:42:26.681Z,101241
2017-12-25T04:44:54.768Z,101234
2017-12-25T04:47:25.963Z,101237
2017-12-25T04:49:54.124Z,101237
2017-12-25T04:52:22.266Z,101234
2017-12-25T04:54:50.488Z,101240
2017-12-25T04:57:19.535Z,101238
2017-12-25T04:59:47.713Z,101236
2017-12-25T05:02:15.932Z,101234
2017-12-25T05:04:44.091Z,101221
2017-12-25T05:07:12.256Z,101234
2017-12-25T05:09:40.439Z,101226
2017-12-25T05:12:09.626Z,101226
2017-12-25T05:14:38.758Z,101221
2017-12-25T05:17:06.964Z,101228
2017-12-25T05:19:35.144Z,101221
2017-12-25T05:22:03.383Z,101220
2017-12-25T05:24:35.923Z,101213
2017-12-25T05:27:04.153Z,101215
2017-12-25T05:29:32.387Z,101211
2017-12-25T05:32:00.826Z,101205
2017-12-25T05:34:29.182Z,101207
2017-12-25T05:36:57.267Z,101203
2017-12-25T05:39:25.427Z,101202
2017-12-25T05:41:53.822Z,101193
2017-12-25T05:44:21.927Z,101192
2017-12-25T05:46:50.996Z,101201
2017-12-25T05:49:19.132Z,101196
2017-12-25T05:51:48.071Z,101192
2017-12-25T05:54:16.230Z,101193
2017-12-25T05:56:44.423Z,101186
2017-12-25T05:59:13.546Z,101179
2017-12-25T06:01:41.790Z,101195
2017-12-25T06:04:10.064Z,101180
2017-12-25T06:06:42.008Z,101175
2017-12-25T06:09:14.634Z,101174
2017-12-25T06:11:43.561Z,101164
2017-12-25T06:14:13.683Z,101175
2017-12-25T06:16:41.942Z,101176
2017-12-25T06:19:13.719Z,101175
2017-12-25T06:21:42.775Z,101177
2017-12-25T06:24:11.635Z,101173
2017-12-25T06:26:39.745Z,101174
2017-12-25T06:29:07.956Z,101166
2017-12-25T06:31:36.147Z,101166
2017-12-25T06:34:04.282Z,101168
2017-12-25T06:36:32.439Z,101177
2017-12-25T06:39:00.570Z,101162
2017-12-25T06:41:28.815Z,101166
2017-12-25T06:43:57.944Z,101166
2017-12-25T06:46:26.239Z,101167
2017-12-25T06:48:54.466Z,101163
2017-12-25T06:51:22.544Z,101164
2017-12-25T06:53:50.703Z,101162
2017-12-25T06:56:19.799Z,101154
2017-12-25T06:58:47.915Z,101156
2017-12-25T07:01:16.128Z,101163
2017-12-25T07:04:00.784Z,101161
2017-12-25T07:06:29.732Z,101153
2017-12-25T07:08:57.903Z,101149
2017-12-25T07:11:25.988Z,101137
2017-12-25T07:13:54.287Z,101139
2017-12-25T07:16:23.244Z,101139
2017-12-25T07:18:51.644Z,101133
2017-12-25T07:21:19.723Z,101136
2017-12-25T07:23:50.869Z,101139
2017-12-25T07:26:19.047Z,101136
2017-12-25T07:28:48.428Z,101131
2017-12-25T07:31:17.704Z,101130
2017-12-25T07:33:46.827Z,101130
2017-12-25T07:36:15.028Z,101126
2017-12-25T07:38:43.192Z,101134
2017-12-25T07:41:16.698Z,101123
2017-12-25T07:43:44.926Z,101118
2017-12-25T07:46:13.123Z,101130
2017-12-25T07:48:41.419Z,101123
2017-12-25T07:51:12.361Z,101116
2017-12-25T07:53:40.591Z,101116
2017-12-25T07:56:08.679Z,101114
2017-12-25T07:58:36.938Z,101117
2017-12-25T08:01:05.264Z,101108
2017-12-25T08:03:33.504Z,101114
2017-12-25T08:06:01.749Z,101110
2017-12-25T08:08:29.948Z,101108
2017-12-25T08:10:58.136Z,101106
2017-12-25T08:13:26.231Z,101120
2017-12-25T08:15:54.407Z,101112
2017-12-25T08:18:23.304Z,101117
2017-12-25T08:20:52.195Z,101120
2017-12-25T08:23:20.387Z,101113
2017-12-25T08:25:48.656Z,101120
2017-12-25T08:28:16.797Z,101116
2017-12-25T08:30:44.949Z,101117
2017-12-25T08:33:13.158Z,101111
2017-12-25T08:35:41.327Z,101110
2017-12-25T08:38:10.504Z,101110
2017-12-25T08:40:38.611Z,101107
2017-12-25T08:43:07.690Z,101104
2017-12-25T08:45:36.681Z,101095
2017-12-25T08:48:04.794Z,101105
2017-12-25T08:50:32.878Z,101099
2017-12-25T08:53:01.000Z,101101
2017-12-25T08:55:30.084Z,101089
2017-12-25T08:57:58.251Z,101101
2017-12-25T09:00:27.482Z,101096
2017-12-25T09:02:55.652Z,101088
2017-12-25T09:05:24.579Z,101105
2017-12-25T09:07:53.771Z,101096
2017-12-25T09:10:23.937Z,101100
2017-12-25T09:12:52.284Z,101108
2017-12-25T09:15:20.611Z,101106
2017-12-25T09:17:48.799Z,101111
2017-12-25T09:20:16.989Z,101112
2017-12-25T09:22:45.243Z,101112
2017-12-25T09:25:14.644Z,101105
2017-12-25T09:27:42.744Z,101027
2017-12-25T09:30:10.867Z,101110
2017-12-25T09:32:38.986Z,101104
2017-12-25T09:35:07.214Z,101112
2017-12-25T09:37:35.427Z,101111
2017-12-25T09:40:04.568Z,101117
2017-12-25T09:42:32.809Z,101104
2017-12-25T09:45:00.921Z,101112
2017-12-25T09:47:29.200Z,101106
2017-12-25T09:50:00.579Z,101107
2017-12-25T09:52:29.707Z,101099
2017-12-25T09:54:57.788Z,101108
2017-12-25T09:57:25.859Z,101095
2017-12-25T09:59:54.022Z,101101
2017-12-25T10:02:22.234Z,101092
2017-12-25T10:04:50.426Z,101091
2017-12-25T10:07:18.764Z,101088
2017-12-25T10:09:52.649Z,101078
2017-12-25T10:12:21.560Z,101077
2017-12-25T10:14:49.681Z,101074
2017-12-25T10:17:18.632Z,101069
2017-12-25T10:19:48.811Z,101052
2017-12-25T10:22:20.472Z,101058
2017-12-25T10:24:48.628Z,101053
2017-12-25T10:27:16.961Z,101050
2017-12-25T10:29:45.086Z,101040
2017-12-25T10:32:13.147Z,101036
2017-12-25T10:34:41.440Z,101040
2017-12-25T10:37:10.281Z,101031
2017-12-25T10:39:38.631Z,101020
2017-12-25T10:42:06.719Z,101019
2017-12-25T10:44:35.112Z,101027
2017-12-25T10:47:03.223Z,101020
2017-12-25T10:49:31.360Z,101021
2017-12-25T10:51:59.440Z,101015
2017-12-25T10:54:27.618Z,101008
2017-12-25T10:56:55.715Z,100998
2017-12-25T10:59:23.839Z,100996
2017-12-25T11:01:51.972Z,100990
2017-12-25T11:04:20.818Z,100991
2017-12-25T11:06:48.933Z,100995
2017-12-25T11:09:16.998Z,100991
2017-12-25T11:11:45.220Z,100976
2017-12-25T11:14:13.353Z,100980
2017-12-25T11:16:41.549Z,100976
2017-12-25T11:19:09.659Z,100971
2017-12-25T11:21:38.532Z,100955
2017-12-25T11:24:07.625Z,100943
2017-12-25T11:26:35.881Z,100944
2017-12-25T11:29:03.971Z,100936
2017-12-25T11:31:32.065Z,100931
2017-12-25T11:34:00.949Z,100923
2017-12-25T11:36:29.288Z,100920
2017-12-25T11:38:58.175Z,100922
2017-12-25T11:41:27.114Z,100914
2017-12-25T11:43:55.222Z,100907
2017-12-25T11:46:23.383Z,100911
2017-12-25T11:48:51.447Z,100907
2017-12-25T11:51:19.552Z,100908
2017-12-25T11:53:48.772Z,100901
2017-12-25T11:56:16.877Z,100894
2017-12-25T11:58:45.007Z,100891
2017-12-25T12:01:13.854Z,100889
2017-12-25T12:03:42.035Z,100883
2017-12-25T12:06:10.276Z,100882
2017-12-25T12:08:38.355Z,100874
2017-12-25T12:11:06.496Z,100868
2017-12-25T12:13:34.628Z,100861
2017-12-25T12:16:02.730Z,100851
2017-12-25T12:18:31.651Z,100838
2017-12-25T12:20:59.783Z,100843
2017-12-25T12:23:28.647Z,100826
2017-12-25T12:25:57.374Z,100831
2017-12-25T12:28:26.240Z,100818
2017-12-25T12:30:54.409Z,100824
2017-12-25T12:33:25.542Z,100818
2017-12-25T12:35:53.699Z,100819
2017-12-25T12:38:21.867Z,100817
2017-12-25T12:40:50.499Z,100794
2017-12-25T12:43:18.654Z,100791
2017-12-25T12:45:46.734Z,100786
2017-12-25T12:48:14.898Z,100784
2017-12-25T12:50:43.000Z,100781
2017-12-25T12:53:11.157Z,100786
2017-12-25T12:55:39.443Z,100777
2017-12-25T12:58:07.504Z,100780
2017-12-25T13:00:36.323Z,100774
2017-12-25T13:03:04.436Z,100758
2017-12-25T13:05:32.559Z,100751
2017-12-25T13:08:01.560Z,100758
2017-12-25T13:10:30.461Z,100742
2017-12-25T13:12:58.780Z,100750
2017-12-25T13:15:26.880Z,100758
2017-12-25T13:17:54.968Z,100743
2017-12-25T13:20:23.879Z,100738
2017-12-25T13:22:52.010Z,100736
2017-12-25T13:25:20.143Z,100735
2017-12-25T13:27:48.285Z,100731
2017-12-25T13:30:17.156Z,100731
2017-12-25T13:32:46.243Z,100726
2017-12-25T13:35:14.424Z,100726
2017-12-25T13:37:43.312Z,100717
2017-12-25T13:40:11.596Z,100720
2017-12-25T13:42:39.736Z,100710
2017-12-25T13:45:07.836Z,100704
2017-12-25T13:47:35.919Z,100714
2017-12-25T13:50:04.799Z,100704
2017-12-25T13:52:33.099Z,100686
2017-12-25T13:55:02.359Z,100715
2017-12-25T13:57:30.699Z,100697
2017-12-25T13:59:58.911Z,100703
2017-12-25T14:02:27.326Z,100702
2017-12-25T14:04:56.233Z,100698
2017-12-25T14:07:25.469Z,100694
2017-12-25T14:09:53.644Z,100696
2017-12-25T14:12:21.772Z,100699
2017-12-25T14:14:50.136Z,100699
2017-12-25T14:17:19.847Z,100687
2017-12-25T14:19:47.955Z,100685
2017-12-25T14:22:16.126Z,100687
2017-12-25T14:24:44.235Z,100682
2017-12-25T14:27:12.425Z,100678
2017-12-25T14:29:40.568Z,100678
2017-12-25T14:32:08.648Z,100667
2017-12-25T14:34:36.899Z,100671
2017-12-25T14:37:05.351Z,100670
2017-12-25T14:39:33.472Z,100665
2017-12-25T14:42:01.552Z,100668
2017-12-25T14:44:29.880Z,100668
2017-12-25T14:46:58.184Z,100661
2017-12-25T14:49:26.372Z,100663
2017-12-25T14:51:54.471Z,100661
2017-12-25T14:54:22.640Z,100658
2017-12-25T14:56:50.896Z,100656
2017-12-25T14:59:19.060Z,100646
2017-12-25T15:01:47.160Z,100658
2017-12-25T15:04:15.243Z,100647
2017-12-25T15:06:43.322Z,100653
2017-12-25T15:09:11.451Z,100641
2017-12-25T15:11:39.594Z,100641
2017-12-25T15:14:07.667Z,100644
2017-12-25T15:16:35.785Z,100645
2017-12-25T15:19:04.060Z,100641
2017-12-25T15:21:32.160Z,100638
2017-12-25T15:24:00.293Z,100637
2017-12-25T15:26:28.414Z,100634
2017-12-25T15:28:57.092Z,100633
2017-12-25T15:31:25.201Z,100638
2017-12-25T15:33:53.324Z,100620
2017-12-25T15:36:21.478Z,100623
2017-12-25T15:38:49.657Z,100620
2017-12-25T15:41:18.551Z,100613
2017-12-25T15:43:48.060Z,100607
2017-12-25T15:46:16.210Z,100605
2017-12-25T15:48:46.476Z,100610
2017-12-25T15:51:14.612Z,100617
2017-12-25T15:53:42.779Z,100616
2017-12-25T15:56:11.139Z,100608
2017-12-25T15:58:39.243Z,100613
2017-12-25T16:01:07.702Z,100610
2017-12-25T16:03:35.969Z,100542
2017-12-25T16:06:04.071Z,100609
2017-12-25T16:08:32.202Z,100603
2017-12-25T16:11:00.664Z,100599
2017-12-25T16:13:29.583Z,100596
2017-12-25T16:15:57.701Z,100600
2017-12-25T16:18:25.798Z,100589
2017-12-25T16:20:54.819Z,100589
2017-12-25T16:23:22.987Z,100586
2017-12-25T16:25:51.860Z,100590
2017-12-25T16:28:20.755Z,100578
2017-12-25T16:30:49.920Z,100575
2017-12-25T16:33:18.097Z,100573
2017-12-25T16:35:46.251Z,100562
2017-12-25T16:38:14.475Z,100565
2017-12-25T16:40:43.391Z,100560
2017-12-25T16:43:11.644Z,100553
2017-12-25T16:45:41.038Z,100552
2017-12-25T16:48:09.112Z,100545
2017-12-25T16:50:37.196Z,100542
2017-12-25T16:53:05.331Z,100541
2017-12-25T16:55:33.889Z,100539
2017-12-25T16:58:02.080Z,100537
2017-12-25T17:00:32.127Z,100533
2017-12-25T17:03:00.280Z,100536
2017-12-25T17:05:28.379Z,100527
2017-12-25T17:07:56.664Z,100525
2017-12-25T17:10:25.568Z,100521
2017-12-25T17:12:54.668Z,100520
2017-12-25T17:15:23.237Z,100518
2017-12-25T17:17:51.371Z,100513
2017-12-25T17:20:19.463Z,100522
2017-12-25T17:22:48.611Z,100510
2017-12-25T17:25:16.783Z,100501
2017-12-25T17:27:44.966Z,100502
2017-12-25T17:30:13.120Z,100495
2017-12-25T17:32:41.308Z,100492
2017-12-25T17:35:09.462Z,100490
2017-12-25T17:37:38.589Z,100491
2017-12-25T17:40:06.673Z,100495
2017-12-25T17:42:34.829Z,100486
2017-12-25T17:45:03.924Z,100481
2017-12-25T17:47:32.087Z,100466
2017-12-25T17:50:00.288Z,100460
2017-12-25T17:52:28.611Z,100461
2017-12-25T17:54:57.244Z,100445
2017-12-25T17:57:25.357Z,100446
2017-12-25T17:59:53.555Z,100437
2017-12-25T18:02:21.888Z,100432
2017-12-25T18:04:50.096Z,100431
2017-12-25T18:07:19.155Z,100428
2017-12-25T18:09:47.321Z,100429
2017-12-25T18:12:15.530Z,100420
2017-12-25T18:14:44.441Z,100415
2017-12-25T18:17:12.624Z,100409
2017-12-25T18:19:40.771Z,100400
2017-12-25T18:22:08.928Z,100396
2017-12-25T18:24:37.027Z,100400
2017-12-25T18:27:05.918Z,100382
2017-12-25T18:29:34.864Z,100390
2017-12-25T18:32:03.011Z,100393
2017-12-25T18:34:31.669Z,100390
2017-12-25T18:37:00.611Z,100382
2017-12-25T18:39:28.915Z,100377
2017-12-25T18:41:57.069Z,100378
2017-12-25T18:44:25.968Z,100373
2017-12-25T18:46:54.184Z,100375
2017-12-25T18:49:23.316Z,100369
2017-12-25T18:51:51.450Z,100377
2017-12-25T18:54:19.949Z,100367
2017-12-25T18:56:48.195Z,100361
2017-12-25T18:59:17.312Z,100363
2017-12-25T19:01:46.200Z,100352
2017-12-25T19:04:15.996Z,100357
2017-12-25T19:06:44.988Z,100357
2017-12-25T19:09:13.181Z,100355
2017-12-25T19:11:43.475Z,100350
2017-12-25T19:14:12.651Z,100347
2017-12-25T19:16:40.879Z,100341
2017-12-25T19:19:09.447Z,100333
2017-12-25T19:21:37.731Z,100336
2017-12-25T19:24:06.652Z,100335
2017-12-25T19:26:34.744Z,100341
2017-12-25T19:29:02.932Z,100335
2017-12-25T19:31:31.158Z,100323
2017-12-25T19:33:59.285Z,100316
2017-12-25T19:36:27.482Z,100335
2017-12-25T19:38:55.597Z,100337
2017-12-25T19:41:23.687Z,100332
2017-12-25T19:43:51.864Z,100319
2017-12-25T19:46:20.220Z,100312
2017-12-25T19:48:48.479Z,100303
2017-12-25T19:51:16.648Z,100301
2017-12-25T19:53:45.588Z,100301
2017-12-25T19:56:13.957Z,100284
2017-12-25T19:58:42.174Z,100295
2017-12-25T20:01:10.411Z,100277
2017-12-25T20:03:38.571Z,100278
2017-12-25T20:06:07.902Z,100263
2017-12-25T20:08:37.077Z,100256
2017-12-25T20:11:07.333Z,100255
2017-12-25T20:13:35.815Z,100243
2017-12-25T20:16:04.328Z,100243
2017-12-25T20:18:32.679Z,100244
2017-12-25T20:21:04.875Z,100241
2017-12-25T20:23:33.275Z,100244
2017-12-25T20:26:01.530Z,100243
2017-12-25T20:28:30.441Z,100240
2017-12-25T20:30:58.792Z,100252
2017-12-25T20:33:26.969Z,100250
2017-12-25T20:35:55.912Z,100247
2017-12-25T20:38:24.093Z,100235
2017-12-25T20:40:52.232Z,100235
2017-12-25T20:43:21.555Z,100222
2017-12-25T20:45:49.902Z,100211
2017-12-25T20:48:18.040Z,100206
2017-12-25T20:50:46.264Z,100203
2017-12-25T20:53:14.727Z,100203
2017-12-25T20:55:42.834Z,100202
2017-12-25T20:58:10.994Z,100210
2017-12-25T21:00:40.091Z,100202
2017-12-25T21:03:08.477Z,100202
2017-12-25T21:05:36.668Z,100199
2017-12-25T21:08:04.899Z,100199
2017-12-25T21:10:33.068Z,100186
2017-12-25T21:13:01.185Z,100180
2017-12-25T21:15:29.382Z,100177
2017-12-25T21:17:57.674Z,100167
2017-12-25T21:20:25.988Z,100167
2017-12-25T21:22:54.572Z,100150
2017-12-25T21:25:22.745Z,100150
2017-12-25T21:27:50.871Z,100151
2017-12-25T21:30:19.555Z,100154
2017-12-25T21:32:47.666Z,100140
2017-12-25T21:35:15.812Z,100138
2017-12-25T21:37:44.811Z,100152
2017-12-25T21:40:13.703Z,100124
2017-12-25T21:42:42.587Z,100140
2017-12-25T21:45:10.645Z,100133
2017-12-25T21:47:38.805Z,100120
2017-12-25T21:50:07.085Z,100124
2017-12-25T21:52:35.197Z,100130
2017-12-25T21:55:04.139Z,100137
2017-12-25T21:57:32.274Z,100131
2017-12-25T22:00:00.389Z,100112
2017-12-25T22:02:28.499Z,100098
2017-12-25T22:04:57.486Z,100103
2017-12-25T22:07:26.351Z,100095
2017-12-25T22:09:54.499Z,100108
2017-12-25T22:12:22.633Z,100103
2017-12-25T22:14:50.896Z,100104
2017-12-25T22:17:18.978Z,100101
2017-12-25T22:19:47.312Z,100092
2017-12-25T22:22:15.399Z,100086
2017-12-25T22:24:43.558Z,100082
2017-12-25T22:27:12.678Z,100082
2017-12-25T22:29:40.770Z,100077
2017-12-25T22:32:09.663Z,100063
2017-12-25T22:34:37.767Z,100055
2017-12-25T22:37:05.851Z,100056
2017-12-25T22:39:34.020Z,100053
2017-12-25T22:42:02.092Z,100044
2017-12-25T22:44:30.205Z,100053
2017-12-25T22:46:58.301Z,100052
2017-12-25T22:49:27.167Z,100049
2017-12-25T22:51:55.291Z,100058
2017-12-25T22:54:23.447Z,100037
2017-12-25T22:56:51.634Z,100030
2017-12-25T22:59:20.026Z,100038
2017-12-25T23:01:48.166Z,100044
2017-12-25T23:04:16.316Z,100036
2017-12-25T23:06:45.067Z,100035
2017-12-25T23:09:13.273Z,100020
2017-12-25T23:11:41.393Z,100019
2017-12-25T23:14:09.476Z,100022
2017-12-25T23:16:37.559Z,100022
2017-12-25T23:19:05.695Z,100013
2017-12-25T23:21:34.469Z,100008
2017-12-25T23:24:02.607Z,100002
2017-12-25T23:26:30.711Z,99981
2017-12-25T23:28:59.556Z,99966
2017-12-25T23:31:27.915Z,99979
2017-12-25T23:33:55.975Z,99967
2017-12-25T23:36:24.113Z,99962
2017-12-25T23:38:52.196Z,99965
2017-12-25T23:41:20.350Z,99944
2017-12-25T23:43:48.516Z,99952
2017-12-25T23:46:16.612Z,99950
2017-12-25T23:48:44.702Z,99941
2017-12-25T23:51:12.827Z,99931
2017-12-25T23:53:40.897Z,99938
2017-12-25T23:56:09.062Z,99923
2017-12-25T23:58:37.196Z,99923
